Time;durP1;ratioP1;P1;durP2;ratioP2;P2;SDS_P1;SDS_P2;PMS_P1;PMS_P2;Temp;Humidity;BMP_temperature;BMP_pressure;BME280_temperature;BME280_humidity;BME280_pressure;Samples;Min_cycle;Max_cycle;Signal;HPM_P1;HPM_P2
2022/05/04 00:01:32;;;;;;;5.50;4.90;;;;;;;9.56;100.00;95796.63;5032261;28;25026;-73
2022/05/04 00:04:00;;;;;;;5.10;4.45;;;;;;;9.51;100.00;95790.06;5032301;28;24466;-73
2022/05/04 00:06:27;;;;;;;4.75;4.07;;;;;;;9.49;100.00;95795.31;5032024;28;24493;-74
2022/05/04 00:08:53;;;;;;;7.07;4.67;;;;;;;9.52;100.00;95795.13;5032427;28;24439;-73
2022/05/04 00:11:20;;;;;;;4.47;4.07;;;;;;;9.50;100.00;95788.41;5032126;28;25008;-73
2022/05/04 00:13:46;;;;;;;5.15;4.22;;;;;;;9.49;100.00;95790.16;5032123;28;24893;-73
2022/05/04 00:16:13;;;;;;;4.63;4.23;;;;;;;9.51;100.00;95784.91;5032201;28;24435;-73
2022/05/04 00:18:39;;;;;;;5.45;4.43;;;;;;;9.45;100.00;95781.75;5032256;28;24423;-73
2022/05/04 00:21:07;;;;;;;7.20;4.10;;;;;;;9.39;100.00;95779.53;5032157;28;24419;-73
2022/05/04 00:23:34;;;;;;;5.07;4.05;;;;;;;9.37;100.00;95772.78;5031785;28;24535;-73
2022/05/04 00:26:01;;;;;;;6.88;3.90;;;;;;;9.30;100.00;95772.28;5031457;28;24988;-74
2022/05/04 00:28:27;;;;;;;4.57;3.78;;;;;;;9.26;100.00;95769.97;5012204;28;24975;-73
2022/05/04 00:30:54;;;;;;;4.47;3.80;;;;;;;9.13;100.00;95778.44;5012253;28;24427;-73
2022/05/04 00:33:20;;;;;;;3.55;2.80;;;;;;;9.09;100.00;95776.13;5026318;28;24428;-73
2022/05/04 00:35:46;;;;;;;3.90;2.83;;;;;;;9.05;100.00;95787.53;5031669;28;24432;-73
2022/05/04 00:38:14;;;;;;;3.00;2.73;;;;;;;8.92;100.00;95787.38;5031555;28;25028;-74
2022/05/04 00:40:41;;;;;;;3.58;2.80;;;;;;;8.74;100.00;95784.06;5031791;28;20807;-74
2022/05/04 00:43:20;;;;;;;3.17;2.72;;;;;;;8.74;100.00;95786.66;5031610;28;24431;-73
2022/05/04 00:45:46;;;;;;;4.40;3.20;;;;;;;8.63;100.00;95794.16;5031754;28;20735;-73
2022/05/04 00:48:13;;;;;;;3.92;3.25;;;;;;;8.59;100.00;95795.25;5031805;28;20990;-73
2022/05/04 00:50:40;;;;;;;5.03;3.70;;;;;;;8.54;100.00;95792.91;5031622;28;20764;-73
2022/05/04 00:53:07;;;;;;;4.15;3.40;;;;;;;8.50;100.00;95791.44;5031260;28;21170;-73
2022/05/04 00:55:35;;;;;;;4.15;3.75;;;;;;;8.45;100.00;95790.81;5031836;28;20765;-73
2022/05/04 01:00:48;;;;;;;3.88;3.55;;;;;;;8.43;100.00;95790.09;5031493;28;21260;-73
2022/05/04 01:03:15;;;;;;;3.65;3.33;;;;;;;8.40;100.00;95785.91;5031182;28;20844;-73
2022/05/04 01:05:41;;;;;;;4.18;3.70;;;;;;;8.41;100.00;95790.16;5031036;28;24822;-73
2022/05/04 01:08:08;;;;;;;3.80;3.50;;;;;;;8.41;100.00;95786.75;5031099;28;24450;-74
2022/05/04 01:10:36;;;;;;;4.00;3.40;;;;;;;8.22;100.00;95786.88;5031496;28;20752;-73
2022/05/04 01:13:02;;;;;;;4.20;3.35;;;;;;;8.16;100.00;95795.78;5031215;28;24435;-73
2022/05/04 01:15:29;;;;;;;4.43;3.22;;;;;;;8.27;100.00;95787.47;5031112;28;20756;-73
2022/05/04 01:17:55;;;;;;;3.15;2.85;;;;;;;8.31;100.00;95785.56;5031132;28;20767;-73
2022/05/04 01:20:24;;;;;;;2.63;2.42;;;;;;;8.33;100.00;95788.88;5030998;28;24789;-73
2022/05/04 01:22:52;;;;;;;3.80;2.92;;;;;;;8.41;100.00;95787.56;5031242;28;20823;-74
2022/05/04 01:25:18;;;;;;;3.55;2.97;;;;;;;8.39;100.00;95786.00;5030993;28;20773;-73
2022/05/04 01:27:45;;;;;;;6.57;3.28;;;;;;;8.28;100.00;95785.72;5030840;28;24470;-73
2022/05/04 01:30:12;;;;;;;4.55;3.03;;;;;;;8.32;100.00;95787.22;5030879;28;24424;-73
2022/05/04 01:32:39;;;;;;;3.75;3.13;;;;;;;8.31;100.00;95785.56;5030583;28;20765;-74
2022/05/04 01:35:06;;;;;;;3.22;2.92;;;;;;;8.14;100.00;95786.44;5031053;28;24416;-73
2022/05/04 01:37:33;;;;;;;3.55;3.00;;;;;;;8.04;100.00;95782.69;5030865;28;20791;-73
2022/05/04 01:40:01;;;;;;;3.03;2.72;;;;;;;7.94;100.00;95783.19;5031177;28;20763;-73
2022/05/04 01:42:27;;;;;;;3.58;3.00;;;;;;;7.90;100.00;95786.00;5030637;28;20806;-73
2022/05/04 01:44:53;;;;;;;8.13;3.40;;;;;;;7.77;100.00;95790.94;5030445;28;24985;-73
2022/05/04 01:47:20;;;;;;;3.65;2.97;;;;;;;7.73;100.00;95792.00;5030504;28;20765;-73
2022/05/04 01:49:46;;;;;;;4.32;3.67;;;;;;;7.82;100.00;95791.53;5030644;28;24881;-73
2022/05/04 01:52:13;;;;;;;4.65;3.47;;;;;;;7.88;100.00;95790.38;5030290;28;24954;-73
2022/05/04 01:54:39;;;;;;;3.47;3.08;;;;;;;7.86;100.00;95790.47;5030573;28;24416;-73
2022/05/04 01:57:07;;;;;;;4.43;3.83;;;;;;;7.90;100.00;95797.16;5030641;28;24424;-73
2022/05/04 01:59:34;;;;;;;6.13;5.15;;;;;;;7.88;100.00;95785.22;5031003;28;20847;-74
2022/05/04 02:02:00;;;;;;;6.07;5.28;;;;;;;7.91;100.00;95790.25;5030019;28;24422;-74
2022/05/04 02:04:27;;;;;;;5.75;5.18;;;;;;;7.92;100.00;95790.16;5030281;28;25032;-73
2022/05/04 02:06:54;;;;;;;5.88;4.88;;;;;;;7.91;100.00;95793.66;5031639;22;20843;-73
2022/05/04 02:09:21;;;;;;;4.97;4.47;;;;;;;7.91;100.00;95785.06;4991099;28;25028;-73
2022/05/04 02:11:48;;;;;;;8.00;4.82;;;;;;;7.95;100.00;95781.44;4992827;28;24421;-74
2022/05/04 02:14:15;;;;;;;5.32;3.80;;;;;;;7.95;100.00;95782.25;4997114;28;24475;-73
2022/05/04 02:16:42;;;;;;;9.50;3.65;;;;;;;7.96;100.00;95775.34;4997554;28;24441;-73
2022/05/04 02:19:09;;;;;;;5.18;4.25;;;;;;;7.98;100.00;95778.69;4997516;28;24962;-73
2022/05/04 02:21:35;;;;;;;3.33;3.03;;;;;;;7.99;100.00;95781.19;4997746;28;20799;-73
2022/05/04 02:24:01;;;;;;;15.65;3.20;;;;;;;7.97;100.00;95788.19;4997396;28;20961;-73
2022/05/04 02:26:28;;;;;;;5.63;2.85;;;;;;;8.00;100.00;95772.53;4997252;28;24834;-73
2022/05/04 02:28:55;;;;;;;11.20;2.80;;;;;;;8.00;100.00;95780.25;4997278;28;24498;-74
2022/05/04 02:31:22;;;;;;;3.53;2.30;;;;;;;7.93;100.00;95780.66;4997601;28;24783;-73
2022/05/04 02:33:49;;;;;;;8.50;2.70;;;;;;;7.97;100.00;95774.41;4997066;28;24424;-74
2022/05/04 02:38:59;;;;;;;17.00;2.78;;;;;;;7.99;100.00;95775.19;4997242;28;24408;-74
2022/05/04 02:41:26;;;;;;;2.42;2.22;;;;;;;7.84;100.00;95771.66;4997272;28;24425;-73
2022/05/04 02:43:52;;;;;;;42.22;2.88;;;;;;;7.76;100.00;95777.22;4997033;28;24421;-74
2022/05/04 02:46:22;;;;;;;17.02;2.80;;;;;;;7.87;100.00;95781.00;4997098;28;24425;-73
2022/05/04 02:48:50;;;;;;;15.50;2.78;;;;;;;7.89;100.00;95782.56;4997414;28;24472;-74
2022/05/04 02:51:17;;;;;;;9.35;2.65;;;;;;;7.89;100.00;95776.56;4997179;28;24476;-74
2022/05/04 02:53:43;;;;;;;10.82;2.90;;;;;;;7.89;100.00;95777.41;4996876;28;24432;-73
2022/05/04 02:56:10;;;;;;;43.80;4.75;;;;;;;7.77;100.00;95778.06;4997316;28;24421;-73
2022/05/04 02:58:37;;;;;;;66.82;5.05;;;;;;;7.55;100.00;95778.31;4997140;28;24435;-74
2022/05/04 03:03:52;;;;;;;3.60;3.30;;;;;;;7.66;100.00;95780.34;4996449;28;24973;-73
2022/05/04 03:06:19;;;;;;;5.57;3.00;;;;;;;7.75;100.00;95783.28;4997317;28;24834;-73
2022/05/04 03:08:45;;;;;;;15.85;3.42;;;;;;;7.79;100.00;95773.66;4996981;28;24969;-73
2022/05/04 03:13:56;;;;;;;7.57;3.40;;;;;;;7.80;100.00;95770.16;4996917;28;21328;-73
2022/05/04 03:16:22;;;;;;;6.40;3.33;;;;;;;7.81;100.00;95771.00;4996832;28;24948;-73
2022/05/04 03:18:48;;;;;;;13.50;4.63;;;;;;;7.81;100.00;95765.84;4996919;28;24420;-73
2022/05/04 03:21:16;;;;;;;19.20;4.72;;;;;;;7.72;100.00;95774.88;4997182;28;24487;-73
2022/05/04 03:23:43;;;;;;;11.00;3.37;;;;;;;7.73;100.00;95773.97;4994055;28;24830;-73
2022/05/04 03:26:09;;;;;;;13.60;3.50;;;;;;;7.58;100.00;95773.00;4993597;28;24996;-74
2022/05/04 03:28:35;;;;;;;8.17;3.87;;;;;;;7.53;100.00;95772.41;4993602;28;24459;-74
2022/05/04 03:31:02;;;;;;;17.33;3.80;;;;;;;7.52;100.00;95781.03;4993798;28;24432;-73
2022/05/04 03:33:29;;;;;;;14.55;3.60;;;;;;;7.37;100.00;95780.06;4993400;28;24420;-73
2022/05/04 03:35:55;;;;;;;5.87;3.13;;;;;;;7.38;100.00;95775.75;4993817;28;24424;-73
2022/05/04 03:38:23;;;;;;;7.63;3.37;;;;;;;7.26;100.00;95772.03;4993848;28;24421;-73
2022/05/04 03:40:49;;;;;;;15.35;3.38;;;;;;;7.21;100.00;95771.44;4993837;28;24421;-73
2022/05/04 03:43:16;;;;;;;4.47;3.33;;;;;;;7.09;100.00;95772.88;4992470;28;24795;-73
2022/05/04 03:45:42;;;;;;;4.10;3.70;;;;;;;7.01;100.00;95769.84;4992467;28;24511;-74
2022/05/04 03:48:09;;;;;;;3.73;3.40;;;;;;;6.96;100.00;95767.47;4992794;28;24425;-73
2022/05/04 03:50:35;;;;;;;7.82;3.78;;;;;;;6.94;100.00;95768.47;4993031;28;24436;-73
2022/05/04 03:53:02;;;;;;;6.38;3.78;;;;;;;6.95;100.00;95767.56;4992781;28;24437;-73
2022/05/04 03:55:29;;;;;;;4.72;3.88;;;;;;;6.99;100.00;95775.06;4992578;28;24846;-73
2022/05/04 03:57:56;;;;;;;3.88;3.47;;;;;;;7.08;100.00;95765.22;4992600;28;24441;-73
2022/05/04 04:00:23;;;;;;;5.97;4.05;;;;;;;7.13;100.00;95765.84;4992927;28;24425;-74
2022/05/04 04:02:50;;;;;;;10.32;4.05;;;;;;;7.28;100.00;95771.06;4992631;28;24442;-73
2022/05/04 04:05:17;;;;;;;4.78;4.03;;;;;;;7.31;100.00;95766.69;4992615;28;24445;-74
2022/05/04 04:07:43;;;;;;;6.43;3.87;;;;;;;7.21;100.00;95767.13;4992847;28;25043;-73
2022/05/04 04:10:10;;;;;;;4.13;3.72;;;;;;;7.11;100.00;95763.31;4993081;28;24417;-73
2022/05/04 04:12:38;;;;;;;3.90;3.60;;;;;;;7.12;100.00;95766.72;4992820;28;24429;-73
2022/05/04 04:15:05;;;;;;;8.35;3.67;;;;;;;7.18;100.00;95763.84;4992759;28;24413;-73
2022/05/04 04:17:32;;;;;;;5.82;3.65;;;;;;;7.19;100.00;95763.81;4991636;28;24456;-73
2022/05/04 04:22:38;;;;;;;5.65;3.45;;;;;;;7.16;100.00;95768.28;4991496;28;24544;-73
2022/05/04 04:25:06;;;;;;;4.03;3.67;;;;;;;7.13;100.00;95774.41;4993174;28;24460;-74
2022/05/04 04:27:34;;;;;;;7.47;4.00;;;;;;;7.17;100.00;95772.50;4993939;28;24428;-74
2022/05/04 04:30:02;;;;;;;4.72;3.40;;;;;;;7.23;100.00;95774.75;4993377;28;24452;-74
2022/05/04 04:32:28;;;;;;;4.65;3.15;;;;;;;7.16;100.00;95776.00;4994041;28;20802;-73
2022/05/04 04:34:55;;;;;;;4.60;4.20;;;;;;;7.18;100.00;95774.16;4994487;28;24954;-74
2022/05/04 04:37:21;;;;;;;4.28;3.85;;;;;;;7.20;100.00;95777.50;4993868;28;24436;-74
2022/05/04 04:39:48;;;;;;;6.63;3.72;;;;;;;7.29;100.00;95774.47;4994034;28;20768;-74
2022/05/04 04:42:14;;;;;;;9.07;3.72;;;;;;;7.38;100.00;95779.19;4993583;28;24479;-73
2022/05/04 04:44:40;;;;;;;10.65;4.20;;;;;;;7.39;100.00;95787.72;4993616;28;25055;-73
2022/05/04 04:47:08;;;;;;;8.88;4.40;;;;;;;7.65;100.00;95782.09;4993623;28;24483;-74
2022/05/04 04:49:35;;;;;;;10.50;3.97;;;;;;;7.63;100.00;95789.06;4993732;28;24467;-74
2022/05/04 04:52:02;;;;;;;8.23;3.80;;;;;;;7.78;100.00;95786.63;4992862;28;24513;-74
2022/05/04 04:54:28;;;;;;;10.10;4.18;;;;;;;7.80;100.00;95783.06;4992624;28;24444;-73
2022/05/04 04:56:55;;;;;;;15.65;4.10;;;;;;;7.66;100.00;95793.22;4992287;28;24803;-74
2022/05/04 04:59:21;;;;;;;12.65;3.95;;;;;;;7.34;100.00;95787.09;4992514;28;24838;-74
2022/05/04 05:01:48;;;;;;;15.57;4.40;;;;;;;7.44;100.00;95783.16;4992687;28;24811;-74
2022/05/04 05:04:16;;;;;;;12.00;4.65;;;;;;;7.26;100.00;95784.91;4992616;28;24429;-74
2022/05/04 05:06:42;;;;;;;8.43;4.10;;;;;;;7.21;100.00;95784.31;4992332;28;24452;-74
2022/05/04 05:09:09;;;;;;;5.00;4.57;;;;;;;7.19;100.00;95789.56;4992583;28;24428;-73
2022/05/04 05:11:35;;;;;;;5.65;4.68;;;;;;;7.17;100.00;95782.81;4991951;28;24456;-74
2022/05/04 05:16:46;;;;;;;4.82;4.43;;;;;;;7.30;100.00;95788.19;4992076;28;24436;-74
2022/05/04 05:19:12;;;;;;;6.70;4.60;;;;;;;7.36;100.00;95788.72;4990642;28;24433;-75
2022/05/04 05:21:41;;;;;;;3.80;3.40;;;;;;;7.48;100.00;95789.84;4991169;28;24483;-74
2022/05/04 05:24:08;;;;;;;3.85;3.47;;;;;;;7.61;100.00;95792.66;4992378;28;24475;-74
2022/05/04 05:26:34;;;;;;;3.07;2.87;;;;;;;7.66;100.00;95788.06;4992126;28;24451;-74
2022/05/04 05:29:01;;;;;;;3.28;3.00;;;;;;;7.69;100.00;95785.34;4992344;28;21198;-75
2022/05/04 05:31:27;;;;;;;3.43;3.13;;;;;;;7.76;100.00;95787.53;4992148;28;24510;-75
2022/05/04 05:33:53;;;;;;;3.38;3.08;;;;;;;7.89;100.00;95789.47;4992298;28;24421;-75
2022/05/04 05:36:20;;;;;;;3.58;3.08;;;;;;;7.97;100.00;95793.34;4992726;28;24428;-76
2022/05/04 05:38:48;;;;;;;5.10;3.17;;;;;;;8.06;100.00;95801.50;4992558;28;24429;-75
2022/05/04 05:41:14;;;;;;;3.63;2.80;;;;;;;8.11;100.00;95799.50;4991654;28;24479;-76
2022/05/04 05:43:40;;;;;;;4.15;3.25;;;;;;;8.06;100.00;95801.50;4991251;28;24962;-75
2022/05/04 05:46:07;;;;;;;3.28;2.97;;;;;;;7.99;100.00;95800.97;4991951;28;20785;-75
2022/05/04 05:48:33;;;;;;;4.70;3.05;;;;;;;8.13;100.00;95805.44;4991695;28;24497;-74
2022/05/04 05:51:04;;;;;;;3.95;3.30;;;;;;;8.19;100.00;95812.81;4991352;28;24416;-74
2022/05/04 05:53:31;;;;;;;4.78;3.40;;;;;;;8.19;100.00;95807.66;4991149;28;24524;-75
2022/05/04 05:55:59;;;;;;;3.90;3.33;;;;;;;8.37;100.00;95813.59;4991971;28;24424;-76
2022/05/04 05:58:25;;;;;;;3.47;2.88;;;;;;;8.50;100.00;95812.06;4992101;28;24834;-75
2022/05/04 06:00:52;;;;;;;3.75;3.30;;;;;;;8.64;100.00;95809.59;4981696;28;24445;-74
2022/05/04 06:03:19;;;;;;;4.28;3.25;;;;;;;8.57;100.00;95820.31;4971894;28;20817;-75
2022/05/04 06:05:45;;;;;;;3.67;3.30;;;;;;;8.40;100.00;95811.72;4987327;28;20796;-75
2022/05/04 06:08:12;;;;;;;4.67;3.47;;;;;;;8.36;100.00;95817.94;4988673;28;21158;-75
2022/05/04 06:10:38;;;;;;;4.07;3.30;;;;;;;8.28;100.00;95814.09;4991356;28;20856;-74
2022/05/04 06:13:06;;;;;;;3.28;2.95;;;;;;;8.44;100.00;95817.56;4991039;28;21115;-75
2022/05/04 06:15:33;;;;;;;3.75;3.00;;;;;;;8.50;100.00;95816.41;4990849;28;21277;-75
2022/05/04 06:18:01;;;;;;;5.88;3.17;;;;;;;8.60;100.00;95828.75;4990942;28;20775;-70
2022/05/04 06:20:27;;;;;;;3.53;3.22;;;;;;;8.53;100.00;95823.97;4991637;28;20814;-76
2022/05/04 06:22:54;;;;;;;3.67;3.05;;;;;;;8.60;100.00;95822.72;4990886;28;21122;-74
2022/05/04 06:25:20;;;;;;;3.40;3.10;;;;;;;8.71;100.00;95821.25;4991088;28;20776;-74
2022/05/04 06:27:47;;;;;;;4.00;3.30;;;;;;;9.07;100.00;95809.78;4989514;28;24958;-75
2022/05/04 06:35:43;;;;;;;8.70;4.22;;;;;;;9.25;100.00;95815.66;4990815;28;20722;-75
2022/05/04 06:38:10;;;;;;;4.13;3.60;;;;;;;9.34;100.00;95822.88;4990724;28;24448;-75
2022/05/04 06:40:37;;;;;;;5.95;3.33;;;;;;;9.37;100.00;95821.88;4991124;28;20822;-75
2022/05/04 06:43:04;;;;;;;3.92;3.50;;;;;;;9.47;100.00;95822.19;4990511;28;24428;-74
2022/05/04 06:45:32;;;;;;;3.60;3.30;;;;;;;9.42;100.00;95822.47;4977142;28;24441;-76
2022/05/04 06:47:59;;;;;;;4.00;3.50;;;;;;;9.49;100.00;95825.50;4971660;28;20812;-76
2022/05/04 06:50:25;;;;;;;5.90;4.03;;;;;;;9.40;100.00;95821.72;4971407;28;24545;-77
2022/05/04 06:52:52;;;;;;;6.63;4.22;;;;;;;9.33;100.00;95828.16;4971076;28;24784;-74
2022/05/04 06:55:18;;;;;;;4.20;3.80;;;;;;;9.43;100.00;95829.28;4971480;28;24500;-74
2022/05/04 06:57:45;;;;;;;4.95;4.00;;;;;;;9.51;100.00;95824.50;4971772;28;24434;-74
2022/05/04 07:00:12;;;;;;;4.30;3.83;;;;;;;9.62;100.00;95831.66;4975139;28;24508;-73
2022/05/04 07:02:40;;;;;;;5.03;3.85;;;;;;;9.75;100.00;95824.81;4975704;28;20766;-74
2022/05/04 07:05:07;;;;;;;5.18;3.55;;;;;;;10.09;100.00;95831.44;4976245;28;20812;-75
2022/05/04 07:07:34;;;;;;;4.82;3.75;;;;;;;9.89;100.00;95834.38;4975670;28;20773;-74
2022/05/04 07:10:01;;;;;;;3.97;3.67;;;;;;;9.91;100.00;95829.94;4976007;28;20768;-73
2022/05/04 07:12:27;;;;;;;4.35;3.95;;;;;;;9.78;100.00;95832.41;4976006;28;24414;-75
2022/05/04 07:14:56;;;;;;;3.65;3.33;;;;;;;9.64;100.00;95832.38;4975433;28;24433;-74
2022/05/04 07:17:22;;;;;;;5.53;3.63;;;;;;;9.71;100.00;95831.09;4975619;28;20871;-74
2022/05/04 07:19:50;;;;;;;5.35;3.50;;;;;;;9.71;100.00;95825.94;4975775;28;20770;-73
2022/05/04 07:22:17;;;;;;;4.47;3.50;;;;;;;9.75;100.00;95832.59;4974957;28;20820;-75
2022/05/04 07:24:43;;;;;;;7.43;3.45;;;;;;;9.76;100.00;95838.63;4974223;28;24437;-74
2022/05/04 07:27:11;;;;;;;15.55;3.65;;;;;;;9.87;100.00;95831.88;4974247;28;24461;-74
2022/05/04 07:29:37;;;;;;;4.68;4.18;;;;;;;9.92;100.00;95832.44;4975000;28;24441;-73
2022/05/04 07:32:05;;;;;;;7.95;4.63;;;;;;;9.80;100.00;95838.34;4962102;28;24441;-74
2022/05/04 07:34:31;;;;;;;4.07;3.77;;;;;;;9.85;100.00;95835.47;4955937;28;24564;-74
2022/05/04 07:36:59;;;;;;;7.27;3.83;;;;;;;9.97;100.00;95837.31;4974678;28;24491;-75
2022/05/04 07:42:25;;;;;;;8.60;4.10;;;;;;;10.69;100.00;95830.41;4975301;28;24597;-75
2022/05/04 07:44:57;;;;;;;13.70;4.32;;;;;;;10.84;100.00;95834.63;4975148;28;20774;-75
2022/05/04 07:47:24;;;;;;;4.32;3.92;;;;;;;11.02;100.00;95832.66;4974254;28;24449;-74
2022/05/04 07:49:50;;;;;;;5.03;4.25;;;;;;;11.26;100.00;95827.63;4974267;28;24425;-74
2022/05/04 07:52:18;;;;;;;8.25;4.32;;;;;;;11.18;100.00;95827.31;4975432;28;24421;-75
2022/05/04 07:54:44;;;;;;;4.38;3.97;;;;;;;11.23;100.00;95838.19;4974239;28;24451;-75
2022/05/04 07:57:11;;;;;;;4.60;4.13;;;;;;;11.35;100.00;95837.44;4974185;28;24440;-75
2022/05/04 07:59:37;;;;;;;4.95;4.20;;;;;;;11.36;100.00;95833.06;4974494;28;24429;-74
2022/05/04 08:04:49;;;;;;;6.55;4.38;;;;;;;12.15;100.00;95842.53;4973878;28;24472;-74
2022/05/04 08:07:17;;;;;;;4.20;3.80;;;;;;;12.36;100.00;95840.25;4981430;23;25019;-75
2022/05/04 08:09:44;;;;;;;4.93;4.03;;;;;;;12.60;100.00;95842.91;4968572;28;24430;-75
2022/05/04 08:12:12;;;;;;;5.03;3.85;;;;;;;12.77;100.00;95839.16;4954344;29;24430;-75
2022/05/04 08:14:39;;;;;;;4.15;3.75;;;;;;;12.91;100.00;95849.41;4954131;29;24430;-74
2022/05/04 08:17:06;;;;;;;5.43;3.53;;;;;;;13.02;100.00;95846.03;4954249;28;24512;-75
2022/05/04 08:19:33;;;;;;;3.55;3.22;;;;;;;13.11;100.00;95852.34;4954298;29;24426;-75
2022/05/04 08:21:59;;;;;;;5.18;3.67;;;;;;;13.06;100.00;95844.88;4954555;28;24437;-72
2022/05/04 08:24:27;;;;;;;5.18;3.80;;;;;;;13.08;100.00;95849.00;4954307;29;24429;-74
2022/05/04 08:26:54;;;;;;;8.50;6.32;;;;;;;12.99;100.00;95859.25;4954067;28;24453;-74
2022/05/04 08:29:20;;;;;;;14.52;6.57;;;;;;;12.88;100.00;95862.63;4953910;29;24477;-74
2022/05/04 08:31:47;;;;;;;5.63;3.85;;;;;;;12.89;100.00;95853.03;4954522;29;24433;-74
2022/05/04 08:34:13;;;;;;;5.28;3.80;;;;;;;13.05;100.00;95853.59;4953902;29;24464;-74
2022/05/04 08:36:40;;;;;;;5.10;3.25;;;;;;;13.30;100.00;95850.13;4954129;29;24421;-71
2022/05/04 08:39:07;;;;;;;5.10;3.47;;;;;;;13.46;100.00;95852.41;4953909;28;24509;-75
2022/05/04 08:41:39;;;;;;;5.80;3.80;;;;;;;13.71;100.00;95843.66;4954059;29;24518;-75
2022/05/04 08:44:08;;;;;;;3.75;3.17;;;;;;;13.92;100.00;95844.66;4953706;29;24459;-74
2022/05/04 08:46:38;;;;;;;5.13;3.08;;;;;;;14.19;100.00;95849.56;4953738;29;24448;-75
2022/05/04 08:49:05;;;;;;;4.18;3.30;;;;;;;14.77;100.00;95844.28;4953751;28;24423;-74
2022/05/04 08:51:33;;;;;;;4.97;3.33;;;;;;;15.45;100.00;95844.94;4953653;29;24465;-75
2022/05/04 08:53:59;;;;;;;7.15;3.65;;;;;;;16.16;100.00;95848.66;4953351;28;24517;-75
2022/05/04 08:56:26;;;;;;;4.15;3.08;;;;;;;15.77;95.94;95841.53;4953551;28;24414;-75
2022/05/04 08:58:54;;;;;;;9.00;3.60;;;;;;;16.11;100.00;95843.00;4953751;28;24441;-74
2022/05/04 09:01:20;;;;;;;4.28;3.35;;;;;;;16.33;100.00;95846.44;4953718;29;24453;-76
2022/05/04 09:03:47;;;;;;;4.13;3.45;;;;;;;16.40;100.00;95850.19;4953215;29;24797;-76
2022/05/04 09:06:25;;;;;;;4.03;3.38;;;;;;;16.42;97.34;95841.22;4954096;29;24449;-76
2022/05/04 09:08:56;;;;;;;3.30;2.90;;;;;;;16.29;100.00;95845.03;4953609;28;24983;-76
2022/05/04 09:11:24;;;;;;;4.47;3.35;;;;;;;16.38;100.00;95842.44;4970330;28;25005;-76
2022/05/04 09:13:51;;;;;;;7.20;3.50;;;;;;;16.21;100.00;95840.47;4972224;28;24610;-76
2022/05/04 09:16:29;;;;;;;5.38;3.50;;;;;;;16.01;100.00;95839.50;4972044;28;24468;-75
2022/05/04 09:18:56;;;;;;;10.70;3.55;;;;;;;15.77;100.00;95839.75;4971375;28;24445;-76
2022/05/04 09:21:24;;;;;;;4.60;3.53;;;;;;;15.58;100.00;95839.59;4971024;28;24835;-76
2022/05/04 09:23:52;;;;;;;3.83;3.33;;;;;;;15.63;100.00;95853.06;4971756;28;24421;-77
2022/05/04 09:26:20;;;;;;;6.83;3.60;;;;;;;15.57;100.00;95843.94;4972129;28;24445;-77
2022/05/04 09:28:49;;;;;;;15.10;4.90;;;;;;;15.61;100.00;95842.78;4972063;28;25012;-76
2022/05/04 09:31:18;;;;;;;5.68;3.65;;;;;;;15.72;100.00;95837.53;4971923;28;24433;-76
2022/05/04 09:33:53;;;;;;;7.10;4.05;;;;;;;16.28;100.00;95841.59;4971151;28;24425;-75
2022/05/04 09:36:30;;;;;;;6.22;4.13;;;;;;;16.80;100.00;95846.81;4971860;28;24453;-76
2022/05/04 09:47:18;;;;;;;4.25;3.40;;;;;;;17.66;94.74;95840.06;4971782;28;24456;-75
2022/05/04 09:49:48;;;;;;;4.15;2.92;;;;;;;17.66;88.52;95838.25;4971778;28;24497;-75
2022/05/04 09:52:15;;;;;;;3.75;2.83;;;;;;;17.84;89.00;95840.22;4971290;28;24432;-75
2022/05/04 09:54:42;;;;;;;5.47;3.75;;;;;;;17.75;93.20;95841.00;4971703;28;24421;-76
2022/05/04 09:57:08;;;;;;;3.97;3.03;;;;;;;17.47;89.48;95842.69;4971657;28;24441;-76
2022/05/04 09:59:36;;;;;;;5.88;3.08;;;;;;;17.39;86.65;95833.72;4971780;28;24422;-75
2022/05/04 10:02:07;;;;;;;4.78;3.47;;;;;;;17.30;86.81;95847.59;4971370;28;25315;-77
2022/05/04 10:04:34;;;;;;;4.75;3.40;;;;;;;17.12;87.39;95838.75;4971585;28;24428;-76
2022/05/04 10:07:04;;;;;;;4.43;3.00;;;;;;;16.83;89.26;95838.69;4971245;28;24448;-77
2022/05/04 10:09:32;;;;;;;4.22;2.88;;;;;;;16.77;84.10;95845.28;4971793;28;24430;-77
2022/05/04 10:12:00;;;;;;;5.57;2.92;;;;;;;16.58;88.95;95846.00;4971927;28;25001;-76
2022/05/04 10:14:28;;;;;;;4.93;3.17;;;;;;;16.76;87.72;95840.16;4971722;28;24420;-71
2022/05/04 10:17:01;;;;;;;5.72;2.97;;;;;;;16.30;84.41;95844.06;4971274;28;24421;-74
2022/05/04 10:19:31;;;;;;;4.30;2.60;;;;;;;16.01;82.34;95841.28;4971422;28;24449;-72
2022/05/04 10:22:01;;;;;;;4.90;2.25;;;;;;;15.83;79.93;95847.06;4971130;28;24428;-73
2022/05/04 10:24:35;;;;;;;5.15;2.35;;;;;;;15.61;80.18;95849.75;4971715;28;24422;-72
2022/05/04 10:27:03;;;;;;;3.50;2.53;;;;;;;15.47;81.27;95845.66;4971085;28;24471;-73
2022/05/04 10:32:36;;;;;;;3.97;2.33;;;;;;;15.31;83.20;95842.63;4970647;28;24425;-73
2022/05/04 10:35:33;;;;;;;5.28;2.42;;;;;;;15.21;83.33;95839.94;4975072;28;24492;-73
2022/05/04 10:38:10;;;;;;;3.40;2.60;;;;;;;14.98;94.82;95844.34;4941705;28;24442;-73
2022/05/04 10:40:40;;;;;;;10.27;3.15;;;;;;;14.90;100.00;95844.97;4974988;28;24886;-75
2022/05/04 10:43:08;;;;;;;4.82;2.72;;;;;;;14.51;100.00;95843.72;4974410;28;24783;-74
2022/05/04 10:45:36;;;;;;;6.03;3.10;;;;;;;14.25;100.00;95843.06;4975209;28;24421;-75
2022/05/04 10:48:28;;;;;;;7.50;3.67;;;;;;;14.13;100.00;95846.63;4974829;28;24461;-74
2022/05/04 10:50:58;;;;;;;8.52;3.17;;;;;;;13.87;100.00;95845.94;4974865;28;24414;-72
2022/05/04 10:53:40;;;;;;;6.30;2.95;;;;;;;13.65;100.00;95850.16;4974621;28;24516;-74
2022/05/04 10:56:09;;;;;;;4.27;2.40;;;;;;;13.77;100.00;95840.59;4974654;28;25277;-73
2022/05/04 10:58:38;;;;;;;6.10;2.50;;;;;;;13.93;100.00;95833.31;4974940;28;24529;-75
2022/05/04 11:01:16;;;;;;;5.57;3.00;;;;;;;14.23;100.00;95834.53;4975556;28;24425;-75
2022/05/04 11:04:05;;;;;;;6.72;3.20;;;;;;;14.29;100.00;95827.09;4975709;28;24440;-76
2022/05/04 11:06:33;;;;;;;6.20;2.90;;;;;;;14.38;100.00;95830.75;4975591;28;24508;-74
2022/05/04 11:09:05;;;;;;;9.43;2.80;;;;;;;14.07;100.00;95821.03;4975783;28;24483;-75
2022/05/04 11:11:34;;;;;;;3.75;2.78;;;;;;;14.57;100.00;95819.75;4975694;28;24421;-75
2022/05/04 11:14:00;;;;;;;4.63;2.75;;;;;;;14.48;100.00;95818.66;4975150;28;24461;-74
2022/05/04 11:16:28;;;;;;;3.80;2.65;;;;;;;14.52;100.00;95812.31;4975393;28;24425;-74
2022/05/04 11:18:55;;;;;;;4.13;2.70;;;;;;;14.86;100.00;95807.03;4975619;28;24421;-75
2022/05/04 11:21:21;;;;;;;3.67;2.78;;;;;;;14.62;100.00;95798.56;4975327;28;24421;-75
2022/05/04 11:23:49;;;;;;;11.30;3.55;;;;;;;14.30;100.00;95809.66;4976590;28;25006;-75
2022/05/04 11:26:20;;;;;;;5.28;3.20;;;;;;;14.09;100.00;95796.53;4975141;28;24425;-74
2022/05/04 11:28:49;;;;;;;4.63;3.10;;;;;;;14.29;100.00;95802.81;4975240;28;24453;-74
2022/05/04 11:31:17;;;;;;;4.60;2.70;;;;;;;14.44;100.00;95804.22;4975364;28;24425;-75
2022/05/04 11:33:44;;;;;;;3.28;2.30;;;;;;;14.89;100.00;95803.38;4975134;28;24425;-76
2022/05/04 11:36:11;;;;;;;3.72;2.67;;;;;;;15.08;100.00;95805.34;4974838;28;24831;-75
2022/05/04 11:38:38;;;;;;;6.82;2.50;;;;;;;15.41;100.00;95801.78;4974963;28;25014;-74
2022/05/04 11:41:04;;;;;;;6.40;2.20;;;;;;;15.78;100.00;95804.84;4975234;28;24497;-75
2022/05/04 11:43:33;;;;;;;4.22;2.38;;;;;;;15.93;100.00;95800.13;4975046;28;24424;-75
2022/05/04 11:46:04;;;;;;;2.60;2.25;;;;;;;15.93;100.00;95803.56;4973797;28;24449;-73
2022/05/04 11:48:30;;;;;;;2.20;2.00;;;;;;;15.93;100.00;95800.13;4974885;28;24459;-75
2022/05/04 11:50:57;;;;;;;4.50;2.53;;;;;;;15.69;100.00;95800.41;4975379;28;24425;-75
2022/05/04 11:53:24;;;;;;;3.83;2.40;;;;;;;15.72;100.00;95802.72;4974794;28;24432;-76
2022/05/04 11:55:52;;;;;;;5.35;2.67;;;;;;;15.58;100.00;95789.97;4974438;28;24815;-73
2022/05/04 11:58:18;;;;;;;3.40;2.60;;;;;;;15.61;100.00;95800.16;4974647;28;25013;-75
2022/05/04 12:00:45;;;;;;;4.57;2.95;;;;;;;15.73;100.00;95805.22;4974300;28;24457;-74
2022/05/04 12:03:13;;;;;;;3.70;2.65;;;;;;;15.66;100.00;95804.09;4974025;28;24417;-74
2022/05/04 12:05:41;;;;;;;5.03;2.78;;;;;;;15.83;100.00;95804.44;4974020;28;24843;-74
2022/05/04 12:08:08;;;;;;;4.82;3.15;;;;;;;15.88;100.00;95799.69;4973423;28;24516;-73
2022/05/04 12:10:35;;;;;;;4.55;3.35;;;;;;;15.84;100.00;95800.91;4974294;28;24422;-73